Terminal Aerodrome Forecast
Issued by NWS

Home | Current Version | Previous Version | Text Only | Print | Product List | Glossary Off
Versions: 1 2 3 4 5 6 7 8 9 10 11 12

005
FTUS43 KICT 031124
TAFHUT
TAF
KHUT 031124Z 0312/0412 32019G27KT P6SM SCT025
     FM032200 32011KT P6SM FEW080
     FM040300 28006KT P6SM SKC=

USA.gov is the U.S. government's official web portal to all federal, state and local government web resources and services.